CP2737 SLCB-SLCB
Flight info
| Callsign | CP2737 |
|---|---|
| Flight time | 0h 25m |
| Altitude | 10000 |
| Route | SLCB TO SLCB TAG |
| Aircraft | C172/L-N/3224 |
Departure
| Time | 2026-04-28 21:17 |
|---|---|
| Airport | Jorge Wilsterman International Airport (SLCB) |
Arrival
| Time | 2026-04-28 21:42 |
|---|---|
| Airport | Jorge Wilsterman International Airport (SLCB) |
| Time | Latitude | Longitude | Altitude | Speed | Heading |
|---|---|---|---|---|---|
| 2026-04-28 21:09 | -17.41558 | -66.17159 | 8361 ft | 0 kts | 115° |
| 2026-04-28 21:10 | -17.41569 | -66.17152 | 8361 ft | 5 kts | 182° |
| 2026-04-28 21:10 | -17.41579 | -66.17171 | 8361 ft | 6 kts | 266° |
| 2026-04-28 21:10 | -17.41577 | -66.17180 | 8361 ft | 0 kts | 298° |
| 2026-04-28 21:11 | -17.41572 | -66.17192 | 8361 ft | 11 kts | 298° |
| 2026-04-28 21:11 | -17.41490 | -66.17218 | 8362 ft | 17 kts | 36° |
| 2026-04-28 21:11 | -17.41383 | -66.17133 | 8364 ft | 21 kts | 36° |
| 2026-04-28 21:12 | -17.41250 | -66.17138 | 8364 ft | 21 kts | 336° |
| 2026-04-28 21:12 | -17.41132 | -66.17135 | 8363 ft | 16 kts | 46° |
| 2026-04-28 21:12 | -17.41103 | -66.17069 | 8364 ft | 0 kts | 83° |
| 2026-04-28 21:14 | -17.41101 | -66.17046 | 8364 ft | 10 kts | 83° |
| 2026-04-28 21:14 | -17.41081 | -66.16931 | 8366 ft | 17 kts | 91° |
| 2026-04-28 21:14 | -17.41165 | -66.16959 | 8366 ft | 25 kts | 217° |
| 2026-04-28 21:14 | -17.41392 | -66.17140 | 8364 ft | 57 kts | 217° |
| 2026-04-28 21:15 | -17.41781 | -66.17450 | 8362 ft | 81 kts | 216° |
| 2026-04-28 21:15 | -17.42246 | -66.17819 | 8431 ft | 85 kts | 219° |
| 2026-04-28 21:15 | -17.42720 | -66.18197 | 8522 ft | 86 kts | 218° |
| 2026-04-28 21:15 | -17.43191 | -66.18569 | 8639 ft | 83 kts | 219° |
| 2026-04-28 21:16 | -17.43660 | -66.18887 | 8755 ft | 80 kts | 212° |
| 2026-04-28 21:16 | -17.44181 | -66.19061 | 8829 ft | 82 kts | 167° |
| 2026-04-28 21:16 | -17.44602 | -66.18666 | 8863 ft | 88 kts | 128° |
| 2026-04-28 21:16 | -17.44978 | -66.18145 | 8911 ft | 91 kts | 129° |
| 2026-04-28 21:17 | -17.45330 | -66.17599 | 9039 ft | 89 kts | 118° |
| 2026-04-28 21:17 | -17.45618 | -66.17000 | 9085 ft | 93 kts | 106° |
| 2026-04-28 21:17 | -17.45391 | -66.16416 | 9182 ft | 90 kts | 27° |
| 2026-04-28 21:17 | -17.44836 | -66.16079 | 9267 ft | 94 kts | 25° |
| 2026-04-28 21:18 | -17.44253 | -66.15743 | 9351 ft | 97 kts | 23° |
| 2026-04-28 21:18 | -17.43646 | -66.15403 | 9439 ft | 102 kts | 25° |
| 2026-04-28 21:18 | -17.43009 | -66.15058 | 9510 ft | 105 kts | 25° |
| 2026-04-28 21:18 | -17.42350 | -66.14671 | 9511 ft | 111 kts | 26° |
| 2026-04-28 21:19 | -17.41654 | -66.14278 | 9403 ft | 117 kts | 23° |
| 2026-04-28 21:19 | -17.40923 | -66.13921 | 9288 ft | 110 kts | 24° |
| 2026-04-28 21:19 | -17.40268 | -66.13689 | 9208 ft | 90 kts | 346° |
| 2026-04-28 21:19 | -17.39804 | -66.14081 | 9104 ft | 89 kts | 304° |
| 2026-04-28 21:20 | -17.39460 | -66.14576 | 9095 ft | 82 kts | 303° |
| 2026-04-28 21:20 | -17.39212 | -66.15066 | 9086 ft | 77 kts | 271° |
| 2026-04-28 21:20 | -17.39488 | -66.15568 | 8931 ft | 86 kts | 226° |
| 2026-04-28 21:20 | -17.39943 | -66.15975 | 8805 ft | 85 kts | 217° |
| 2026-04-28 21:21 | -17.40409 | -66.16349 | 8670 ft | 84 kts | 220° |
| 2026-04-28 21:21 | -17.40874 | -66.16721 | 8506 ft | 81 kts | 219° |
| 2026-04-28 21:21 | -17.41298 | -66.17063 | 8370 ft | 68 kts | 217° |
| 2026-04-28 21:21 | -17.41623 | -66.17323 | 8360 ft | 58 kts | 217° |
| 2026-04-28 21:22 | -17.42014 | -66.17634 | 8376 ft | 78 kts | 218° |
| 2026-04-28 21:22 | -17.42456 | -66.17984 | 8464 ft | 80 kts | 218° |
| 2026-04-28 21:22 | -17.42898 | -66.18325 | 8580 ft | 78 kts | 216° |
| 2026-04-28 21:22 | -17.43203 | -66.18544 | 8646 ft | 79 kts | 215° |
| 2026-04-28 21:23 | -17.43827 | -66.18924 | 8745 ft | 81 kts | 211° |
| 2026-04-28 21:23 | -17.44133 | -66.19136 | 8795 ft | 79 kts | 224° |
| 2026-04-28 21:23 | -17.44231 | -66.19688 | 8840 ft | 83 kts | 292° |
| 2026-04-28 21:23 | -17.43856 | -66.20201 | 8857 ft | 90 kts | 308° |
| 2026-04-28 21:24 | -17.43432 | -66.20702 | 8893 ft | 94 kts | 308° |
| 2026-04-28 21:24 | -17.42995 | -66.21219 | 8966 ft | 95 kts | 308° |
| 2026-04-28 21:24 | -17.42494 | -66.21631 | 9068 ft | 95 kts | 344° |
| 2026-04-28 21:24 | -17.41821 | -66.21488 | 9086 ft | 106 kts | 28° |
| 2026-04-28 21:25 | -17.41228 | -66.21011 | 9163 ft | 106 kts | 36° |
| 2026-04-28 21:25 | -17.40665 | -66.20489 | 9203 ft | 111 kts | 40° |
| 2026-04-28 21:25 | -17.40056 | -66.19989 | 9265 ft | 111 kts | 32° |
| 2026-04-28 21:25 | -17.39434 | -66.19492 | 9339 ft | 112 kts | 35° |
| 2026-04-28 21:26 | -17.38804 | -66.19019 | 9414 ft | 113 kts | 30° |
| 2026-04-28 21:26 | -17.38141 | -66.18594 | 9450 ft | 108 kts | 26° |
| 2026-04-28 21:26 | -17.37548 | -66.18206 | 9408 ft | 97 kts | 31° |
| 2026-04-28 21:26 | -17.37026 | -66.17772 | 9364 ft | 100 kts | 52° |
| 2026-04-28 21:27 | -17.36913 | -66.17064 | 9316 ft | 99 kts | 110° |
| 2026-04-28 21:27 | -17.37334 | -66.16509 | 9222 ft | 97 kts | 132° |
| 2026-04-28 21:27 | -17.37775 | -66.15998 | 9157 ft | 93 kts | 133° |
| 2026-04-28 21:27 | -17.38187 | -66.15495 | 9099 ft | 91 kts | 131° |
| 2026-04-28 21:28 | -17.38703 | -66.15171 | 9011 ft | 88 kts | 179° |
| 2026-04-28 21:28 | -17.39254 | -66.15385 | 8902 ft | 83 kts | 224° |
| 2026-04-28 21:28 | -17.39699 | -66.15752 | 8814 ft | 79 kts | 220° |
| 2026-04-28 21:28 | -17.40115 | -66.16118 | 8697 ft | 79 kts | 220° |
| 2026-04-28 21:29 | -17.40551 | -66.16461 | 8591 ft | 79 kts | 217° |
| 2026-04-28 21:29 | -17.40982 | -66.16808 | 8453 ft | 75 kts | 219° |
| 2026-04-28 21:29 | -17.41365 | -66.17115 | 8365 ft | 59 kts | 217° |
| 2026-04-28 21:29 | -17.41692 | -66.17380 | 8359 ft | 70 kts | 217° |
| 2026-04-28 21:30 | -17.42125 | -66.17712 | 8417 ft | 79 kts | 217° |
| 2026-04-28 21:30 | -17.42568 | -66.18053 | 8512 ft | 80 kts | 218° |
| 2026-04-28 21:30 | -17.43017 | -66.18379 | 8637 ft | 77 kts | 211° |
| 2026-04-28 21:30 | -17.43457 | -66.18726 | 8722 ft | 78 kts | 222° |
| 2026-04-28 21:31 | -17.43883 | -66.19075 | 8780 ft | 83 kts | 205° |
| 2026-04-28 21:31 | -17.44395 | -66.18873 | 8837 ft | 87 kts | 128° |
| 2026-04-28 21:31 | -17.44772 | -66.18364 | 8909 ft | 88 kts | 132° |
| 2026-04-28 21:31 | -17.45160 | -66.17870 | 9037 ft | 86 kts | 128° |
| 2026-04-28 21:32 | -17.45406 | -66.17294 | 9098 ft | 90 kts | 83° |
| 2026-04-28 21:32 | -17.45078 | -66.16807 | 9222 ft | 83 kts | 25° |
| 2026-04-28 21:32 | -17.44567 | -66.16470 | 9289 ft | 90 kts | 29° |
| 2026-04-28 21:32 | -17.44035 | -66.16090 | 9353 ft | 95 kts | 31° |
| 2026-04-28 21:33 | -17.43514 | -66.15704 | 9535 ft | 88 kts | 26° |
| 2026-04-28 21:33 | -17.42964 | -66.15386 | 9541 ft | 96 kts | 29° |
| 2026-04-28 21:33 | -17.42396 | -66.15021 | 9633 ft | 93 kts | 23° |
| 2026-04-28 21:33 | -17.41825 | -66.14688 | 9562 ft | 100 kts | 27° |
| 2026-04-28 21:34 | -17.41250 | -66.14301 | 9486 ft | 98 kts | 30° |
| 2026-04-28 21:34 | -17.40684 | -66.13939 | 9393 ft | 96 kts | 29° |
| 2026-04-28 21:34 | -17.40080 | -66.13741 | 9241 ft | 92 kts | 341° |
| 2026-04-28 21:34 | -17.39593 | -66.14145 | 9147 ft | 88 kts | 309° |
| 2026-04-28 21:35 | -17.39216 | -66.14616 | 9056 ft | 81 kts | 307° |
| 2026-04-28 21:35 | -17.39180 | -66.15154 | 8906 ft | 81 kts | 243° |
| 2026-04-28 21:35 | -17.39540 | -66.15632 | 8816 ft | 81 kts | 224° |
| 2026-04-28 21:35 | -17.39953 | -66.15992 | 8735 ft | 77 kts | 218° |
| 2026-04-28 21:36 | -17.40374 | -66.16324 | 8633 ft | 77 kts | 217° |
| 2026-04-28 21:36 | -17.40812 | -66.16672 | 8526 ft | 82 kts | 219° |
| 2026-04-28 21:36 | -17.41243 | -66.17021 | 8395 ft | 73 kts | 214° |
| 2026-04-28 21:36 | -17.41595 | -66.17292 | 8361 ft | 52 kts | 218° |
| 2026-04-28 21:37 | -17.41886 | -66.17536 | 8357 ft | 65 kts | 217° |
| 2026-04-28 21:37 | -17.42293 | -66.17857 | 8418 ft | 75 kts | 218° |
| 2026-04-28 21:37 | -17.42744 | -66.18166 | 8501 ft | 78 kts | 213° |
| 2026-04-28 21:37 | -17.43197 | -66.18469 | 8597 ft | 78 kts | 217° |
| 2026-04-28 21:38 | -17.43632 | -66.18795 | 8708 ft | 75 kts | 216° |
| 2026-04-28 21:38 | -17.44071 | -66.19119 | 8773 ft | 79 kts | 218° |
| 2026-04-28 21:38 | -17.44599 | -66.19252 | 8767 ft | 93 kts | 156° |
| 2026-04-28 21:38 | -17.45052 | -66.18765 | 8879 ft | 92 kts | 127° |
| 2026-04-28 21:39 | -17.45446 | -66.18213 | 8940 ft | 94 kts | 128° |
| 2026-04-28 21:39 | -17.45809 | -66.17667 | 9059 ft | 90 kts | 111° |
| 2026-04-28 21:39 | -17.45969 | -66.17007 | 9101 ft | 97 kts | 102° |
| 2026-04-28 21:39 | -17.46178 | -66.16279 | 9123 ft | 107 kts | 112° |
| 2026-04-28 21:40 | -17.46444 | -66.15554 | 9212 ft | 108 kts | 108° |
| 2026-04-28 21:40 | -17.46367 | -66.14789 | 9267 ft | 110 kts | 65° |
| 2026-04-28 21:40 | -17.45971 | -66.14140 | 9459 ft | 99 kts | 50° |
| 2026-04-28 21:40 | -17.45454 | -66.13860 | 9426 ft | 84 kts | 343° |
| 2026-04-28 21:41 | -17.45008 | -66.14239 | 9270 ft | 85 kts | 311° |
| 2026-04-28 21:41 | -17.44636 | -66.14689 | 9101 ft | 78 kts | 304° |
| 2026-04-28 21:41 | -17.44300 | -66.15100 | 8957 ft | 72 kts | 309° |
| 2026-04-28 21:41 | -17.43987 | -66.15496 | 8794 ft | 72 kts | 314° |
| 2026-04-28 21:42 | -17.43683 | -66.15891 | 8651 ft | 69 kts | 313° |
| 2026-04-28 21:42 | -17.43345 | -66.16268 | 8523 ft | 73 kts | 310° |
| 2026-04-28 21:42 | -17.43025 | -66.16645 | 8371 ft | 64 kts | 310° |
| 2026-04-28 21:42 | -17.42785 | -66.16930 | 8356 ft | 44 kts | 313° |
| 2026-04-28 21:43 | -17.42600 | -66.17144 | 8355 ft | 36 kts | 313° |
| 2026-04-28 21:43 | -17.42449 | -66.17319 | 8356 ft | 29 kts | 311° |
| 2026-04-28 21:43 | -17.42320 | -66.17467 | 8357 ft | 26 kts | 314° |
| 2026-04-28 21:43 | -17.42202 | -66.17602 | 8358 ft | 24 kts | 316° |
| 2026-04-28 21:44 | -17.42079 | -66.17684 | 8357 ft | 19 kts | 32° |
| 2026-04-28 21:44 | -17.41917 | -66.17560 | 8357 ft | 44 kts | 37° |
| 2026-04-28 21:44 | -17.41622 | -66.17321 | 8360 ft | 45 kts | 38° |
| 2026-04-28 21:44 | -17.41556 | -66.17216 | 8361 ft | 12 kts | 114° |
| 2026-04-28 21:45 | -17.41607 | -66.17161 | 8361 ft | 10 kts | 153° |
| 2026-04-28 21:45 | -17.41659 | -66.17133 | 8360 ft | 3 kts | 174° |
| 2026-04-28 21:45 | -17.41659 | -66.17132 | 8360 ft | 0 kts | 175° |